sensor_id;sensor_type;location;lat;lon;timestamp;P1;durP1;ratioP1;P2;durP2;ratioP2
52776;SDS011;38656;54.260;20.822;2023-03-31T00:00:51;36.65;;;32.75;;
52776;SDS011;38656;54.260;20.822;2023-03-31T00:03:18;38.67;;;30.88;;
52776;SDS011;38656;54.260;20.822;2023-03-31T00:05:48;38.72;;;34.88;;
52776;SDS011;38656;54.260;20.822;2023-03-31T00:08:19;47.85;;;43.17;;
52776;SDS011;38656;54.260;20.822;2023-03-31T00:10:45;41.20;;;37.20;;
52776;SDS011;38656;54.260;20.822;2023-03-31T00:13:12;38.17;;;34.28;;
52776;SDS011;38656;54.260;20.822;2023-03-31T00:15:38;41.47;;;33.67;;
52776;SDS011;38656;54.260;20.822;2023-03-31T00:18:04;36.38;;;32.63;;
52776;SDS011;38656;54.260;20.822;2023-03-31T00:20:31;37.85;;;33.92;;
52776;SDS011;38656;54.260;20.822;2023-03-31T00:22:57;38.77;;;35.03;;
52776;SDS011;38656;54.260;20.822;2023-03-31T00:25:25;36.65;;;33.22;;
52776;SDS011;38656;54.260;20.822;2023-03-31T00:27:52;45.20;;;40.45;;
52776;SDS011;38656;54.260;20.822;2023-03-31T00:30:18;44.95;;;40.33;;
52776;SDS011;38656;54.260;20.822;2023-03-31T00:32:45;43.67;;;39.15;;
52776;SDS011;38656;54.260;20.822;2023-03-31T00:35:11;42.50;;;38.25;;
52776;SDS011;38656;54.260;20.822;2023-03-31T00:37:37;42.10;;;38.08;;
52776;SDS011;38656;54.260;20.822;2023-03-31T00:40:04;50.78;;;45.72;;
52776;SDS011;38656;54.260;20.822;2023-03-31T00:42:33;48.20;;;43.28;;
52776;SDS011;38656;54.260;20.822;2023-03-31T00:47:53;41.00;;;36.72;;
52776;SDS011;38656;54.260;20.822;2023-03-31T00:50:27;47.90;;;43.08;;
52776;SDS011;38656;54.260;20.822;2023-03-31T00:53:00;47.75;;;42.78;;
52776;SDS011;38656;54.260;20.822;2023-03-31T00:55:33;45.03;;;40.45;;
52776;SDS011;38656;54.260;20.822;2023-03-31T00:58:06;48.90;;;43.70;;
52776;SDS011;38656;54.260;20.822;2023-03-31T01:00:38;47.58;;;42.97;;
52776;SDS011;38656;54.260;20.822;2023-03-31T01:03:05;48.83;;;44.20;;
52776;SDS011;38656;54.260;20.822;2023-03-31T01:05:50;52.25;;;47.10;;
52776;SDS011;38656;54.260;20.822;2023-03-31T01:08:22;52.55;;;47.30;;
52776;SDS011;38656;54.260;20.822;2023-03-31T01:10:52;50.13;;;45.00;;
52776;SDS011;38656;54.260;20.822;2023-03-31T01:13:24;50.13;;;44.97;;
52776;SDS011;38656;54.260;20.822;2023-03-31T01:15:52;48.63;;;43.75;;
52776;SDS011;38656;54.260;20.822;2023-03-31T01:18:20;48.30;;;43.63;;
52776;SDS011;38656;54.260;20.822;2023-03-31T01:26:41;53.58;;;48.25;;
52776;SDS011;38656;54.260;20.822;2023-03-31T01:43:43;50.20;;;45.63;;
52776;SDS011;38656;54.260;20.822;2023-03-31T01:46:35;50.20;;;44.80;;
52776;SDS011;38656;54.260;20.822;2023-03-31T01:51:42;51.05;;;45.63;;
52776;SDS011;38656;54.260;20.822;2023-03-31T01:56:59;44.08;;;39.47;;
52776;SDS011;38656;54.260;20.822;2023-03-31T01:59:37;49.65;;;44.33;;
52776;SDS011;38656;54.260;20.822;2023-03-31T02:02:12;43.05;;;38.85;;
52776;SDS011;38656;54.260;20.822;2023-03-31T02:04:52;68.25;;;62.17;;
52776;SDS011;38656;54.260;20.822;2023-03-31T02:07:26;56.15;;;50.83;;
52776;SDS011;38656;54.260;20.822;2023-03-31T02:10:00;36.08;;;32.33;;
52776;SDS011;38656;54.260;20.822;2023-03-31T02:12:31;36.35;;;32.80;;
52776;SDS011;38656;54.260;20.822;2023-03-31T02:14:59;31.77;;;28.60;;
52776;SDS011;38656;54.260;20.822;2023-03-31T02:17:28;36.58;;;33.08;;
52776;SDS011;38656;54.260;20.822;2023-03-31T02:19:57;35.58;;;32.28;;
52776;SDS011;38656;54.260;20.822;2023-03-31T02:22:30;34.65;;;31.17;;
52776;SDS011;38656;54.260;20.822;2023-03-31T02:25:14;29.67;;;26.42;;
52776;SDS011;38656;54.260;20.822;2023-03-31T02:27:46;29.77;;;27.05;;
52776;SDS011;38656;54.260;20.822;2023-03-31T02:30:20;27.90;;;25.33;;
52776;SDS011;38656;54.260;20.822;2023-03-31T02:32:48;27.38;;;24.77;;
52776;SDS011;38656;54.260;20.822;2023-03-31T02:35:15;27.88;;;25.20;;
52776;SDS011;38656;54.260;20.822;2023-03-31T02:37:44;27.98;;;25.27;;
52776;SDS011;38656;54.260;20.822;2023-03-31T02:40:17;22.52;;;20.23;;
52776;SDS011;38656;54.260;20.822;2023-03-31T02:42:45;21.52;;;19.35;;
52776;SDS011;38656;54.260;20.822;2023-03-31T02:48:00;25.13;;;17.02;;
52776;SDS011;38656;54.260;20.822;2023-03-31T02:50:29;16.73;;;14.65;;
52776;SDS011;38656;54.260;20.822;2023-03-31T02:53:02;13.98;;;12.52;;
52776;SDS011;38656;54.260;20.822;2023-03-31T02:58:20;19.40;;;13.73;;
52776;SDS011;38656;54.260;20.822;2023-03-31T03:06:56;14.85;;;11.10;;
52776;SDS011;38656;54.260;20.822;2023-03-31T03:17:44;17.15;;;11.68;;
52776;SDS011;38656;54.260;20.822;2023-03-31T03:20:12;14.52;;;11.63;;
52776;SDS011;38656;54.260;20.822;2023-03-31T03:22:40;18.08;;;12.63;;
52776;SDS011;38656;54.260;20.822;2023-03-31T03:25:07;14.55;;;10.95;;
52776;SDS011;38656;54.260;20.822;2023-03-31T03:27:35;17.23;;;13.50;;
52776;SDS011;38656;54.260;20.822;2023-03-31T03:30:02;17.20;;;11.60;;
52776;SDS011;38656;54.260;20.822;2023-03-31T03:32:31;14.75;;;12.18;;
52776;SDS011;38656;54.260;20.822;2023-03-31T03:34:58;16.85;;;12.23;;
52776;SDS011;38656;54.260;20.822;2023-03-31T03:37:24;20.27;;;14.45;;
52776;SDS011;38656;54.260;20.822;2023-03-31T03:39:51;17.60;;;13.82;;
52776;SDS011;38656;54.260;20.822;2023-03-31T03:42:17;19.67;;;15.75;;
52776;SDS011;38656;54.260;20.822;2023-03-31T03:44:44;16.77;;;14.70;;
52776;SDS011;38656;54.260;20.822;2023-03-31T03:47:10;15.93;;;14.20;;
52776;SDS011;38656;54.260;20.822;2023-03-31T03:49:36;27.40;;;18.48;;
52776;SDS011;38656;54.260;20.822;2023-03-31T03:52:03;21.20;;;17.95;;
52776;SDS011;38656;54.260;20.822;2023-03-31T03:54:29;19.60;;;15.27;;
52776;SDS011;38656;54.260;20.822;2023-03-31T03:56:55;19.63;;;17.13;;
52776;SDS011;38656;54.260;20.822;2023-03-31T03:59:21;18.38;;;16.48;;
52776;SDS011;38656;54.260;20.822;2023-03-31T04:01:48;21.80;;;17.65;;
52776;SDS011;38656;54.260;20.822;2023-03-31T04:04:14;20.73;;;18.58;;
52776;SDS011;38656;54.260;20.822;2023-03-31T04:06:41;19.63;;;17.63;;
52776;SDS011;38656;54.260;20.822;2023-03-31T04:09:07;24.88;;;21.15;;
52776;SDS011;38656;54.260;20.822;2023-03-31T04:11:33;28.33;;;21.17;;
52776;SDS011;38656;54.260;20.822;2023-03-31T04:13:59;39.53;;;30.80;;
52776;SDS011;38656;54.260;20.822;2023-03-31T04:16:25;45.42;;;32.40;;
52776;SDS011;38656;54.260;20.822;2023-03-31T04:18:52;38.20;;;27.58;;
52776;SDS011;38656;54.260;20.822;2023-03-31T04:21:23;24.75;;;22.27;;
52776;SDS011;38656;54.260;20.822;2023-03-31T04:23:53;30.50;;;26.27;;
52776;SDS011;38656;54.260;20.822;2023-03-31T04:26:32;33.22;;;26.40;;
52776;SDS011;38656;54.260;20.822;2023-03-31T04:29:16;26.58;;;23.73;;
52776;SDS011;38656;54.260;20.822;2023-03-31T04:31:46;41.83;;;32.42;;
52776;SDS011;38656;54.260;20.822;2023-03-31T04:34:14;42.58;;;35.90;;
52776;SDS011;38656;54.260;20.822;2023-03-31T04:36:44;31.88;;;28.65;;
52776;SDS011;38656;54.260;20.822;2023-03-31T04:39:18;49.60;;;35.78;;
52776;SDS011;38656;54.260;20.822;2023-03-31T04:41:51;86.57;;;54.38;;
52776;SDS011;38656;54.260;20.822;2023-03-31T04:44:18;47.70;;;41.05;;
52776;SDS011;38656;54.260;20.822;2023-03-31T04:46:44;33.00;;;29.58;;
52776;SDS011;38656;54.260;20.822;2023-03-31T04:49:10;36.55;;;32.55;;
52776;SDS011;38656;54.260;20.822;2023-03-31T04:51:37;44.83;;;38.17;;
52776;SDS011;38656;54.260;20.822;2023-03-31T04:54:03;34.38;;;30.98;;
52776;SDS011;38656;54.260;20.822;2023-03-31T04:56:30;31.58;;;28.10;;
52776;SDS011;38656;54.260;20.822;2023-03-31T04:58:56;31.98;;;28.67;;
52776;SDS011;38656;54.260;20.822;2023-03-31T05:01:22;35.70;;;32.17;;
52776;SDS011;38656;54.260;20.822;2023-03-31T05:03:48;39.85;;;33.58;;
52776;SDS011;38656;54.260;20.822;2023-03-31T05:06:15;34.08;;;30.42;;
52776;SDS011;38656;54.260;20.822;2023-03-31T05:08:41;51.97;;;42.95;;
52776;SDS011;38656;54.260;20.822;2023-03-31T05:11:08;33.50;;;30.00;;
52776;SDS011;38656;54.260;20.822;2023-03-31T05:13:35;39.08;;;35.08;;
52776;SDS011;38656;54.260;20.822;2023-03-31T05:16:07;49.75;;;44.85;;
52776;SDS011;38656;54.260;20.822;2023-03-31T05:18:38;34.88;;;29.25;;
52776;SDS011;38656;54.260;20.822;2023-03-31T05:21:11;43.28;;;37.90;;
52776;SDS011;38656;54.260;20.822;2023-03-31T05:23:40;41.38;;;36.38;;
52776;SDS011;38656;54.260;20.822;2023-03-31T05:26:06;37.58;;;33.20;;
52776;SDS011;38656;54.260;20.822;2023-03-31T05:28:33;33.42;;;29.80;;
52776;SDS011;38656;54.260;20.822;2023-03-31T05:31:00;35.85;;;32.25;;
52776;SDS011;38656;54.260;20.822;2023-03-31T05:33:28;36.38;;;32.50;;
52776;SDS011;38656;54.260;20.822;2023-03-31T05:35:54;34.22;;;30.60;;
52776;SDS011;38656;54.260;20.822;2023-03-31T05:38:21;31.05;;;27.45;;
52776;SDS011;38656;54.260;20.822;2023-03-31T05:40:47;34.25;;;30.63;;
52776;SDS011;38656;54.260;20.822;2023-03-31T05:43:13;48.97;;;43.67;;
52776;SDS011;38656;54.260;20.822;2023-03-31T05:45:40;35.35;;;31.98;;
52776;SDS011;38656;54.260;20.822;2023-03-31T05:48:06;33.88;;;30.33;;
52776;SDS011;38656;54.260;20.822;2023-03-31T05:50:32;31.45;;;28.38;;
52776;SDS011;38656;54.260;20.822;2023-03-31T05:52:58;36.13;;;32.47;;
52776;SDS011;38656;54.260;20.822;2023-03-31T05:55:24;42.38;;;36.53;;
52776;SDS011;38656;54.260;20.822;2023-03-31T05:57:51;34.65;;;27.38;;
52776;SDS011;38656;54.260;20.822;2023-03-31T06:00:17;33.08;;;29.98;;
52776;SDS011;38656;54.260;20.822;2023-03-31T06:02:43;26.08;;;22.42;;
52776;SDS011;38656;54.260;20.822;2023-03-31T06:05:10;26.15;;;23.65;;
52776;SDS011;38656;54.260;20.822;2023-03-31T06:07:37;21.88;;;19.13;;
52776;SDS011;38656;54.260;20.822;2023-03-31T06:10:03;24.35;;;21.08;;
52776;SDS011;38656;54.260;20.822;2023-03-31T06:12:32;25.88;;;23.08;;
52776;SDS011;38656;54.260;20.822;2023-03-31T06:14:58;21.02;;;18.23;;
52776;SDS011;38656;54.260;20.822;2023-03-31T06:17:24;21.17;;;18.58;;
52776;SDS011;38656;54.260;20.822;2023-03-31T06:19:50;23.27;;;19.98;;
52776;SDS011;38656;54.260;20.822;2023-03-31T06:22:16;22.65;;;19.02;;
52776;SDS011;38656;54.260;20.822;2023-03-31T06:24:42;27.70;;;19.23;;
52776;SDS011;38656;54.260;20.822;2023-03-31T06:27:09;21.90;;;19.05;;
52776;SDS011;38656;54.260;20.822;2023-03-31T06:29:35;24.45;;;21.98;;
52776;SDS011;38656;54.260;20.822;2023-03-31T06:32:01;20.20;;;18.27;;
52776;SDS011;38656;54.260;20.822;2023-03-31T06:34:29;21.75;;;16.95;;
52776;SDS011;38656;54.260;20.822;2023-03-31T06:36:55;18.52;;;16.58;;
52776;SDS011;38656;54.260;20.822;2023-03-31T06:39:21;18.95;;;15.10;;
52776;SDS011;38656;54.260;20.822;2023-03-31T06:41:47;22.35;;;15.38;;
52776;SDS011;38656;54.260;20.822;2023-03-31T06:44:14;19.08;;;14.68;;
52776;SDS011;38656;54.260;20.822;2023-03-31T06:46:41;15.57;;;13.57;;
52776;SDS011;38656;54.260;20.822;2023-03-31T06:49:07;51.60;;;29.60;;
52776;SDS011;38656;54.260;20.822;2023-03-31T06:51:33;30.25;;;21.38;;
52776;SDS011;38656;54.260;20.822;2023-03-31T06:53:59;48.15;;;42.92;;
52776;SDS011;38656;54.260;20.822;2023-03-31T06:56:25;22.92;;;17.95;;
52776;SDS011;38656;54.260;20.822;2023-03-31T06:58:52;47.63;;;32.30;;
52776;SDS011;38656;54.260;20.822;2023-03-31T07:01:18;40.70;;;33.78;;
52776;SDS011;38656;54.260;20.822;2023-03-31T07:03:44;218.25;;;162.73;;
52776;SDS011;38656;54.260;20.822;2023-03-31T07:06:10;18.13;;;13.65;;
52776;SDS011;38656;54.260;20.822;2023-03-31T07:08:36;23.63;;;20.65;;
52776;SDS011;38656;54.260;20.822;2023-03-31T07:11:03;50.33;;;45.08;;
52776;SDS011;38656;54.260;20.822;2023-03-31T07:13:29;24.85;;;17.27;;
52776;SDS011;38656;54.260;20.822;2023-03-31T07:15:55;22.55;;;20.13;;
52776;SDS011;38656;54.260;20.822;2023-03-31T07:18:22;17.90;;;14.18;;
52776;SDS011;38656;54.260;20.822;2023-03-31T07:20:50;241.68;;;166.75;;
52776;SDS011;38656;54.260;20.822;2023-03-31T07:23:17;22.67;;;19.63;;
52776;SDS011;38656;54.260;20.822;2023-03-31T07:25:45;22.38;;;16.95;;
52776;SDS011;38656;54.260;20.822;2023-03-31T07:28:12;25.08;;;21.55;;
52776;SDS011;38656;54.260;20.822;2023-03-31T07:30:38;17.45;;;15.75;;
52776;SDS011;38656;54.260;20.822;2023-03-31T07:33:05;23.08;;;19.40;;
52776;SDS011;38656;54.260;20.822;2023-03-31T07:35:31;25.27;;;18.27;;
52776;SDS011;38656;54.260;20.822;2023-03-31T07:37:58;26.83;;;24.05;;
52776;SDS011;38656;54.260;20.822;2023-03-31T07:40:25;22.52;;;20.23;;
52776;SDS011;38656;54.260;20.822;2023-03-31T07:42:53;32.60;;;28.67;;
52776;SDS011;38656;54.260;20.822;2023-03-31T07:45:20;19.13;;;17.17;;
52776;SDS011;38656;54.260;20.822;2023-03-31T07:47:48;19.98;;;15.75;;
52776;SDS011;38656;54.260;20.822;2023-03-31T07:50:15;22.90;;;20.73;;
52776;SDS011;38656;54.260;20.822;2023-03-31T07:52:42;24.50;;;22.02;;
52776;SDS011;38656;54.260;20.822;2023-03-31T07:55:10;45.78;;;35.20;;
52776;SDS011;38656;54.260;20.822;2023-03-31T07:57:37;27.30;;;24.45;;
52776;SDS011;38656;54.260;20.822;2023-03-31T08:00:04;49.60;;;35.75;;
52776;SDS011;38656;54.260;20.822;2023-03-31T08:02:33;54.13;;;43.42;;
52776;SDS011;38656;54.260;20.822;2023-03-31T08:05:00;30.38;;;23.85;;
52776;SDS011;38656;54.260;20.822;2023-03-31T08:07:26;38.90;;;32.70;;
52776;SDS011;38656;54.260;20.822;2023-03-31T08:09:55;20.80;;;16.10;;
52776;SDS011;38656;54.260;20.822;2023-03-31T08:12:22;43.88;;;35.10;;
52776;SDS011;38656;54.260;20.822;2023-03-31T08:14:48;44.60;;;27.90;;
52776;SDS011;38656;54.260;20.822;2023-03-31T08:17:14;110.60;;;61.03;;
52776;SDS011;38656;54.260;20.822;2023-03-31T08:19:40;62.00;;;40.03;;
52776;SDS011;38656;54.260;20.822;2023-03-31T08:22:06;25.30;;;20.90;;
52776;SDS011;38656;54.260;20.822;2023-03-31T08:24:33;28.30;;;25.15;;
52776;SDS011;38656;54.260;20.822;2023-03-31T08:26:59;54.00;;;35.67;;
52776;SDS011;38656;54.260;20.822;2023-03-31T08:29:25;245.55;;;159.38;;
52776;SDS011;38656;54.260;20.822;2023-03-31T08:31:52;32.58;;;29.35;;
52776;SDS011;38656;54.260;20.822;2023-03-31T08:34:19;36.90;;;33.60;;
52776;SDS011;38656;54.260;20.822;2023-03-31T08:36:45;28.00;;;25.13;;
52776;SDS011;38656;54.260;20.822;2023-03-31T08:39:12;16.88;;;14.88;;
52776;SDS011;38656;54.260;20.822;2023-03-31T08:44:23;14.98;;;13.50;;
52776;SDS011;38656;54.260;20.822;2023-03-31T08:46:59;12.50;;;11.27;;
52776;SDS011;38656;54.260;20.822;2023-03-31T08:49:27;29.70;;;25.92;;
52776;SDS011;38656;54.260;20.822;2023-03-31T08:51:58;19.42;;;15.40;;
52776;SDS011;38656;54.260;20.822;2023-03-31T08:54:33;53.22;;;40.05;;
52776;SDS011;38656;54.260;20.822;2023-03-31T08:57:21;31.75;;;28.20;;
52776;SDS011;38656;54.260;20.822;2023-03-31T08:59:52;17.08;;;14.63;;
52776;SDS011;38656;54.260;20.822;2023-03-31T09:13:23;42.83;;;37.03;;
52776;SDS011;38656;54.260;20.822;2023-03-31T09:18:49;49.92;;;41.45;;
52776;SDS011;38656;54.260;20.822;2023-03-31T09:21:27;23.27;;;16.70;;
52776;SDS011;38656;54.260;20.822;2023-03-31T09:24:31;195.95;;;94.20;;
52776;SDS011;38656;54.260;20.822;2023-03-31T09:26:59;328.33;;;154.48;;
52776;SDS011;38656;54.260;20.822;2023-03-31T09:29:35;160.93;;;79.70;;
52776;SDS011;38656;54.260;20.822;2023-03-31T09:34:43;37.85;;;26.17;;
52776;SDS011;38656;54.260;20.822;2023-03-31T09:37:11;68.97;;;39.53;;
52776;SDS011;38656;54.260;20.822;2023-03-31T09:39:38;200.07;;;88.82;;
52776;SDS011;38656;54.260;20.822;2023-03-31T09:42:05;18.00;;;16.15;;
52776;SDS011;38656;54.260;20.822;2023-03-31T09:44:38;55.75;;;35.83;;
52776;SDS011;38656;54.260;20.822;2023-03-31T09:47:10;105.15;;;59.97;;
52776;SDS011;38656;54.260;20.822;2023-03-31T09:49:51;76.78;;;53.85;;
52776;SDS011;38656;54.260;20.822;2023-03-31T09:52:27;93.80;;;57.40;;
52776;SDS011;38656;54.260;20.822;2023-03-31T09:55:01;240.13;;;103.65;;
52776;SDS011;38656;54.260;20.822;2023-03-31T09:57:54;185.98;;;81.88;;
52776;SDS011;38656;54.260;20.822;2023-03-31T10:00:21;118.35;;;65.47;;
52776;SDS011;38656;54.260;20.822;2023-03-31T10:10:45;71.35;;;49.50;;
52776;SDS011;38656;54.260;20.822;2023-03-31T10:13:16;19.63;;;17.50;;
52776;SDS011;38656;54.260;20.822;2023-03-31T10:15:53;32.50;;;29.08;;
52776;SDS011;38656;54.260;20.822;2023-03-31T10:18:33;57.65;;;51.70;;
52776;SDS011;38656;54.260;20.822;2023-03-31T10:21:02;20.08;;;15.75;;
52776;SDS011;38656;54.260;20.822;2023-03-31T10:23:31;32.78;;;29.40;;
52776;SDS011;38656;54.260;20.822;2023-03-31T10:25:59;106.18;;;73.07;;
52776;SDS011;38656;54.260;20.822;2023-03-31T10:28:30;15.52;;;13.68;;
52776;SDS011;38656;54.260;20.822;2023-03-31T10:30:59;24.58;;;21.95;;
52776;SDS011;38656;54.260;20.822;2023-03-31T10:33:28;13.85;;;12.10;;
52776;SDS011;38656;54.260;20.822;2023-03-31T10:35:59;19.52;;;14.73;;
52776;SDS011;38656;54.260;20.822;2023-03-31T10:38:35;54.90;;;40.08;;
52776;SDS011;38656;54.260;20.822;2023-03-31T10:41:07;19.73;;;16.73;;
52776;SDS011;38656;54.260;20.822;2023-03-31T10:46:07;21.65;;;18.30;;
52776;SDS011;38656;54.260;20.822;2023-03-31T10:48:34;56.17;;;48.20;;
52776;SDS011;38656;54.260;20.822;2023-03-31T10:51:04;38.13;;;26.25;;
52776;SDS011;38656;54.260;20.822;2023-03-31T10:53:44;50.67;;;38.50;;
52776;SDS011;38656;54.260;20.822;2023-03-31T11:01:38;17.92;;;12.57;;
52776;SDS011;38656;54.260;20.822;2023-03-31T11:23:15;17.90;;;16.15;;
52776;SDS011;38656;54.260;20.822;2023-03-31T11:25:57;14.40;;;12.90;;
52776;SDS011;38656;54.260;20.822;2023-03-31T11:37:06;16.02;;;12.45;;
52776;SDS011;38656;54.260;20.822;2023-03-31T11:42:33;12.10;;;7.13;;
52776;SDS011;38656;54.260;20.822;2023-03-31T11:45:12;10.15;;;7.30;;
52776;SDS011;38656;54.260;20.822;2023-03-31T11:47:49;12.45;;;8.15;;
52776;SDS011;38656;54.260;20.822;2023-03-31T11:50:20;10.73;;;7.57;;
52776;SDS011;38656;54.260;20.822;2023-03-31T11:53:14;9.73;;;7.13;;
52776;SDS011;38656;54.260;20.822;2023-03-31T11:55:45;10.77;;;7.57;;
52776;SDS011;38656;54.260;20.822;2023-03-31T12:06:27;16.38;;;9.57;;
52776;SDS011;38656;54.260;20.822;2023-03-31T12:14:33;9.77;;;7.65;;
52776;SDS011;38656;54.260;20.822;2023-03-31T12:17:16;12.45;;;10.30;;
52776;SDS011;38656;54.260;20.822;2023-03-31T12:19:55;8.70;;;7.35;;
52776;SDS011;38656;54.260;20.822;2023-03-31T12:24:58;11.55;;;6.75;;
52776;SDS011;38656;54.260;20.822;2023-03-31T12:29:57;9.35;;;5.97;;
52776;SDS011;38656;54.260;20.822;2023-03-31T12:32:27;10.88;;;6.78;;
52776;SDS011;38656;54.260;20.822;2023-03-31T12:43:14;15.50;;;14.02;;
52776;SDS011;38656;54.260;20.822;2023-03-31T12:51:47;72.13;;;47.22;;
52776;SDS011;38656;54.260;20.822;2023-03-31T12:57:30;38.22;;;34.40;;
52776;SDS011;38656;54.260;20.822;2023-03-31T13:00:11;9.88;;;8.85;;
52776;SDS011;38656;54.260;20.822;2023-03-31T13:02:44;45.28;;;36.85;;
52776;SDS011;38656;54.260;20.822;2023-03-31T13:08:05;40.00;;;28.67;;
52776;SDS011;38656;54.260;20.822;2023-03-31T13:10:49;19.70;;;14.98;;
52776;SDS011;38656;54.260;20.822;2023-03-31T13:13:21;14.18;;;11.70;;
52776;SDS011;38656;54.260;20.822;2023-03-31T13:15:50;37.30;;;33.30;;
52776;SDS011;38656;54.260;20.822;2023-03-31T13:18:20;68.00;;;52.35;;
52776;SDS011;38656;54.260;20.822;2023-03-31T13:20:57;45.33;;;40.55;;
52776;SDS011;38656;54.260;20.822;2023-03-31T13:23:25;17.33;;;9.90;;
52776;SDS011;38656;54.260;20.822;2023-03-31T13:25:59;9.57;;;7.72;;
52776;SDS011;38656;54.260;20.822;2023-03-31T13:28:30;8.20;;;6.38;;
52776;SDS011;38656;54.260;20.822;2023-03-31T13:30:58;6.05;;;4.53;;
52776;SDS011;38656;54.260;20.822;2023-03-31T13:33:41;9.40;;;6.00;;
52776;SDS011;38656;54.260;20.822;2023-03-31T13:44:26;30.90;;;24.45;;
52776;SDS011;38656;54.260;20.822;2023-03-31T13:47:39;30.65;;;20.60;;
52776;SDS011;38656;54.260;20.822;2023-03-31T13:50:14;35.15;;;25.08;;
52776;SDS011;38656;54.260;20.822;2023-03-31T13:56:03;20.70;;;17.88;;
52776;SDS011;38656;54.260;20.822;2023-03-31T14:07:37;6.57;;;4.75;;
52776;SDS011;38656;54.260;20.822;2023-03-31T14:13:15;7.93;;;7.10;;
52776;SDS011;38656;54.260;20.822;2023-03-31T14:15:51;8.85;;;6.00;;
52776;SDS011;38656;54.260;20.822;2023-03-31T14:20:56;5.53;;;3.58;;
52776;SDS011;38656;54.260;20.822;2023-03-31T14:23:52;4.32;;;3.92;;
52776;SDS011;38656;54.260;20.822;2023-03-31T14:29:09;14.68;;;10.98;;
52776;SDS011;38656;54.260;20.822;2023-03-31T14:37:02;13.77;;;11.25;;
52776;SDS011;38656;54.260;20.822;2023-03-31T14:39:51;18.05;;;15.15;;
52776;SDS011;38656;54.260;20.822;2023-03-31T14:42:24;18.50;;;13.80;;
52776;SDS011;38656;54.260;20.822;2023-03-31T14:44:54;11.80;;;8.13;;
52776;SDS011;38656;54.260;20.822;2023-03-31T14:47:23;11.93;;;9.00;;
52776;SDS011;38656;54.260;20.822;2023-03-31T14:49:59;10.48;;;7.15;;
52776;SDS011;38656;54.260;20.822;2023-03-31T14:52:37;9.80;;;8.82;;
52776;SDS011;38656;54.260;20.822;2023-03-31T14:55:04;9.68;;;8.73;;
52776;SDS011;38656;54.260;20.822;2023-03-31T14:57:34;13.05;;;11.68;;
52776;SDS011;38656;54.260;20.822;2023-03-31T15:00:06;15.98;;;12.77;;
52776;SDS011;38656;54.260;20.822;2023-03-31T15:02:39;8.50;;;5.88;;
52776;SDS011;38656;54.260;20.822;2023-03-31T15:05:07;11.18;;;6.82;;
52776;SDS011;38656;54.260;20.822;2023-03-31T15:07:55;31.52;;;17.50;;
52776;SDS011;38656;54.260;20.822;2023-03-31T15:10:23;15.18;;;9.40;;
52776;SDS011;38656;54.260;20.822;2023-03-31T15:12:54;27.67;;;12.15;;
52776;SDS011;38656;54.260;20.822;2023-03-31T15:15:22;18.58;;;11.13;;
52776;SDS011;38656;54.260;20.822;2023-03-31T15:17:50;39.13;;;20.13;;
52776;SDS011;38656;54.260;20.822;2023-03-31T15:22:52;23.58;;;14.90;;
52776;SDS011;38656;54.260;20.822;2023-03-31T15:25:28;14.13;;;10.13;;
52776;SDS011;38656;54.260;20.822;2023-03-31T15:28:11;15.13;;;11.52;;
52776;SDS011;38656;54.260;20.822;2023-03-31T15:30:41;17.23;;;12.65;;
52776;SDS011;38656;54.260;20.822;2023-03-31T15:36:12;7.88;;;5.15;;
52776;SDS011;38656;54.260;20.822;2023-03-31T15:38:39;9.82;;;6.85;;
52776;SDS011;38656;54.260;20.822;2023-03-31T15:41:11;8.40;;;5.85;;
52776;SDS011;38656;54.260;20.822;2023-03-31T15:43:44;9.20;;;6.70;;
52776;SDS011;38656;54.260;20.822;2023-03-31T15:49:00;7.90;;;6.20;;
52776;SDS011;38656;54.260;20.822;2023-03-31T15:51:31;8.10;;;7.30;;
52776;SDS011;38656;54.260;20.822;2023-03-31T15:54:00;9.82;;;5.80;;
52776;SDS011;38656;54.260;20.822;2023-03-31T15:59:05;13.77;;;12.38;;
52776;SDS011;38656;54.260;20.822;2023-03-31T16:01:51;10.70;;;8.18;;
52776;SDS011;38656;54.260;20.822;2023-03-31T16:04:20;8.10;;;5.32;;
52776;SDS011;38656;54.260;20.822;2023-03-31T16:11:53;10.35;;;9.38;;
52776;SDS011;38656;54.260;20.822;2023-03-31T16:14:29;17.55;;;15.68;;
52776;SDS011;38656;54.260;20.822;2023-03-31T16:17:04;18.77;;;14.43;;
52776;SDS011;38656;54.260;20.822;2023-03-31T16:19:48;23.48;;;18.52;;
52776;SDS011;38656;54.260;20.822;2023-03-31T16:22:21;19.55;;;15.05;;
52776;SDS011;38656;54.260;20.822;2023-03-31T16:24:54;17.85;;;16.00;;
52776;SDS011;38656;54.260;20.822;2023-03-31T16:27:21;14.85;;;13.15;;
52776;SDS011;38656;54.260;20.822;2023-03-31T16:29:47;16.65;;;14.02;;
52776;SDS011;38656;54.260;20.822;2023-03-31T16:32:15;17.77;;;15.98;;
52776;SDS011;38656;54.260;20.822;2023-03-31T16:37:21;26.83;;;21.77;;
52776;SDS011;38656;54.260;20.822;2023-03-31T16:39:48;26.50;;;21.52;;
52776;SDS011;38656;54.260;20.822;2023-03-31T16:42:15;66.75;;;40.22;;
52776;SDS011;38656;54.260;20.822;2023-03-31T16:44:41;95.80;;;58.45;;
52776;SDS011;38656;54.260;20.822;2023-03-31T16:47:08;48.65;;;38.78;;
52776;SDS011;38656;54.260;20.822;2023-03-31T16:49:34;48.03;;;39.50;;
52776;SDS011;38656;54.260;20.822;2023-03-31T16:52:00;99.70;;;56.90;;
52776;SDS011;38656;54.260;20.822;2023-03-31T16:54:27;186.80;;;87.55;;
52776;SDS011;38656;54.260;20.822;2023-03-31T16:56:53;210.27;;;112.15;;
52776;SDS011;38656;54.260;20.822;2023-03-31T16:59:19;224.90;;;123.45;;
52776;SDS011;38656;54.260;20.822;2023-03-31T17:01:45;200.88;;;114.13;;
52776;SDS011;38656;54.260;20.822;2023-03-31T17:04:12;204.20;;;113.97;;
52776;SDS011;38656;54.260;20.822;2023-03-31T17:06:38;182.32;;;99.53;;
52776;SDS011;38656;54.260;20.822;2023-03-31T17:09:04;174.23;;;94.80;;
52776;SDS011;38656;54.260;20.822;2023-03-31T17:11:31;126.93;;;73.78;;
52776;SDS011;38656;54.260;20.822;2023-03-31T17:13:57;138.77;;;74.53;;
52776;SDS011;38656;54.260;20.822;2023-03-31T17:16:24;203.65;;;94.82;;
52776;SDS011;38656;54.260;20.822;2023-03-31T17:18:50;397.00;;;188.38;;
52776;SDS011;38656;54.260;20.822;2023-03-31T17:21:17;284.95;;;132.00;;
52776;SDS011;38656;54.260;20.822;2023-03-31T17:23:44;288.48;;;138.70;;
52776;SDS011;38656;54.260;20.822;2023-03-31T17:26:11;474.52;;;259.80;;
52776;SDS011;38656;54.260;20.822;2023-03-31T17:28:38;395.17;;;182.90;;
52776;SDS011;38656;54.260;20.822;2023-03-31T17:31:11;429.55;;;229.00;;
52776;SDS011;38656;54.260;20.822;2023-03-31T17:33:43;398.92;;;198.85;;
52776;SDS011;38656;54.260;20.822;2023-03-31T17:36:09;353.17;;;179.45;;
52776;SDS011;38656;54.260;20.822;2023-03-31T17:38:36;356.48;;;183.13;;
52776;SDS011;38656;54.260;20.822;2023-03-31T17:41:04;272.70;;;146.43;;
52776;SDS011;38656;54.260;20.822;2023-03-31T17:43:31;234.40;;;130.07;;
52776;SDS011;38656;54.260;20.822;2023-03-31T17:46:02;278.33;;;152.07;;
52776;SDS011;38656;54.260;20.822;2023-03-31T17:48:31;253.77;;;142.48;;
52776;SDS011;38656;54.260;20.822;2023-03-31T17:51:05;250.52;;;138.80;;